sensor_id;sensor_type;location;lat;lon;timestamp;pressure;altitude;pressure_sealevel;temperature;humidity
54236;BME280;40151;43.606;1.472;2023-04-07T00:00:20;99592.69;;;18.29;50.71
54236;BME280;40151;43.606;1.472;2023-04-07T00:02:45;99592.69;;;18.29;50.79
54236;BME280;40151;43.606;1.472;2023-04-07T00:05:13;99586.59;;;18.28;50.89
54236;BME280;40151;43.606;1.472;2023-04-07T00:07:38;99584.00;;;18.27;50.55
54236;BME280;40151;43.606;1.472;2023-04-07T00:10:04;99584.00;;;18.27;50.85
54236;BME280;40151;43.606;1.472;2023-04-07T00:12:30;99578.78;;;18.25;50.57
54236;BME280;40151;43.606;1.472;2023-04-07T00:14:55;99572.66;;;18.24;50.75
54236;BME280;40151;43.606;1.472;2023-04-07T00:17:20;99574.50;;;18.22;50.75
54236;BME280;40151;43.606;1.472;2023-04-07T00:19:46;99578.00;;;18.23;50.62
54236;BME280;40151;43.606;1.472;2023-04-07T00:22:11;99577.31;;;18.19;50.95
54236;BME280;40151;43.606;1.472;2023-04-07T00:24:37;99585.22;;;18.19;50.74
54236;BME280;40151;43.606;1.472;2023-04-07T00:27:02;99584.47;;;18.17;50.87
54236;BME280;40151;43.606;1.472;2023-04-07T00:29:27;99578.31;;;18.17;50.68
54236;BME280;40151;43.606;1.472;2023-04-07T00:31:53;99579.25;;;18.16;50.86
54236;BME280;40151;43.606;1.472;2023-04-07T00:34:18;99582.72;;;18.16;50.49
54236;BME280;40151;43.606;1.472;2023-04-07T00:36:44;99571.38;;;18.14;50.83
54236;BME280;40151;43.606;1.472;2023-04-07T00:39:16;99569.69;;;18.13;50.84
54236;BME280;40151;43.606;1.472;2023-04-07T00:41:41;99573.25;;;18.12;50.64
54236;BME280;40151;43.606;1.472;2023-04-07T00:44:07;99568.88;;;18.11;50.89
54236;BME280;40151;43.606;1.472;2023-04-07T00:46:32;99562.75;;;18.10;50.79
54236;BME280;40151;43.606;1.472;2023-04-07T00:48:58;99553.19;;;18.08;50.91
54236;BME280;40151;43.606;1.472;2023-04-07T00:51:25;99547.91;;;18.08;50.92
54236;BME280;40151;43.606;1.472;2023-04-07T00:53:51;99547.91;;;18.08;50.67
54236;BME280;40151;43.606;1.472;2023-04-07T00:56:18;99542.69;;;18.06;50.82
54236;BME280;40151;43.606;1.472;2023-04-07T00:58:43;99546.19;;;18.07;50.85
54236;BME280;40151;43.606;1.472;2023-04-07T01:01:14;99542.69;;;18.06;50.87
54236;BME280;40151;43.606;1.472;2023-04-07T01:03:52;99541.75;;;18.07;50.71
54236;BME280;40151;43.606;1.472;2023-04-07T01:06:25;99542.72;;;18.05;50.90
54236;BME280;40151;43.606;1.472;2023-04-07T01:11:41;99533.94;;;18.06;50.88
54236;BME280;40151;43.606;1.472;2023-04-07T01:14:08;99534.81;;;18.05;50.68
54236;BME280;40151;43.606;1.472;2023-04-07T01:16:45;99535.75;;;18.04;50.63
54236;BME280;40151;43.606;1.472;2023-04-07T01:19:13;99527.03;;;18.02;50.83
54236;BME280;40151;43.606;1.472;2023-04-07T01:21:43;99525.34;;;18.01;50.79
54236;BME280;40151;43.606;1.472;2023-04-07T01:24:44;99509.50;;;18.01;50.56
54236;BME280;40151;43.606;1.472;2023-04-07T01:27:20;99522.69;;;18.01;50.53
54236;BME280;40151;43.606;1.472;2023-04-07T01:29:51;99521.84;;;18.00;50.52
54236;BME280;40151;43.606;1.472;2023-04-07T01:32:18;99525.34;;;18.01;50.53
54236;BME280;40151;43.606;1.472;2023-04-07T01:34:49;99521.06;;;17.98;50.75
54236;BME280;40151;43.606;1.472;2023-04-07T01:37:16;99514.91;;;17.97;50.73
54236;BME280;40151;43.606;1.472;2023-04-07T01:39:42;99513.19;;;17.96;50.43
54236;BME280;40151;43.606;1.472;2023-04-07T01:42:08;99517.56;;;17.97;50.74
54236;BME280;40151;43.606;1.472;2023-04-07T01:44:35;99523.75;;;17.96;50.55
54236;BME280;40151;43.606;1.472;2023-04-07T01:47:01;99511.63;;;17.92;50.64
54236;BME280;40151;43.606;1.472;2023-04-07T01:49:29;99507.22;;;17.93;50.81
54236;BME280;40151;43.606;1.472;2023-04-07T01:51:55;99507.28;;;17.91;50.56
54236;BME280;40151;43.606;1.472;2023-04-07T01:54:21;99511.72;;;17.91;50.61
54236;BME280;40151;43.606;1.472;2023-04-07T01:56:47;99500.28;;;17.90;50.54
54236;BME280;40151;43.606;1.472;2023-04-07T01:59:12;99501.22;;;17.89;50.72
54236;BME280;40151;43.606;1.472;2023-04-07T02:01:39;99497.78;;;17.87;50.74
54236;BME280;40151;43.606;1.472;2023-04-07T02:04:15;99502.16;;;17.88;50.72
54236;BME280;40151;43.606;1.472;2023-04-07T02:06:52;99498.72;;;17.86;50.48
54236;BME280;40151;43.606;1.472;2023-04-07T02:09:20;99499.66;;;17.85;50.74
54236;BME280;40151;43.606;1.472;2023-04-07T02:11:47;99497.00;;;17.85;50.70
54236;BME280;40151;43.606;1.472;2023-04-07T02:14:13;99487.38;;;17.84;50.69
54236;BME280;40151;43.606;1.472;2023-04-07T02:16:42;99494.44;;;17.83;50.53
54236;BME280;40151;43.606;1.472;2023-04-07T02:19:07;99492.81;;;17.81;50.72
54236;BME280;40151;43.606;1.472;2023-04-07T02:21:34;99495.53;;;17.79;50.45
54236;BME280;40151;43.606;1.472;2023-04-07T02:24:01;99497.25;;;17.80;50.47
54236;BME280;40151;43.606;1.472;2023-04-07T02:26:26;99496.38;;;17.80;50.56
54236;BME280;40151;43.606;1.472;2023-04-07T02:28:51;99490.25;;;17.79;50.49
54236;BME280;40151;43.606;1.472;2023-04-07T02:31:17;99487.63;;;17.79;50.59
54236;BME280;40151;43.606;1.472;2023-04-07T02:33:42;99480.69;;;17.77;50.31
54236;BME280;40151;43.606;1.472;2023-04-07T02:36:08;99482.41;;;17.78;50.46
54236;BME280;40151;43.606;1.472;2023-04-07T02:38:33;99487.69;;;17.78;50.52
54236;BME280;40151;43.606;1.472;2023-04-07T02:40:58;99485.09;;;17.76;50.67
54236;BME280;40151;43.606;1.472;2023-04-07T02:43:24;99483.41;;;17.75;50.27
54236;BME280;40151;43.606;1.472;2023-04-07T02:45:50;99489.50;;;17.76;50.60
54236;BME280;40151;43.606;1.472;2023-04-07T02:48:16;99486.03;;;17.75;50.32
54236;BME280;40151;43.606;1.472;2023-04-07T02:50:41;99481.69;;;17.74;50.27
54236;BME280;40151;43.606;1.472;2023-04-07T02:53:07;99479.13;;;17.73;50.18
54236;BME280;40151;43.606;1.472;2023-04-07T02:55:32;99480.81;;;17.74;50.56
54236;BME280;40151;43.606;1.472;2023-04-07T02:57:57;99484.41;;;17.73;50.35
54236;BME280;40151;43.606;1.472;2023-04-07T03:00:24;99476.59;;;17.69;50.64
54236;BME280;40151;43.606;1.472;2023-04-07T03:02:49;99474.84;;;17.70;50.42
54236;BME280;40151;43.606;1.472;2023-04-07T03:05:15;99475.00;;;17.67;50.44
54236;BME280;40151;43.606;1.472;2023-04-07T03:07:40;99473.97;;;17.69;50.46
54236;BME280;40151;43.606;1.472;2023-04-07T03:10:06;99476.72;;;17.68;50.40
54236;BME280;40151;43.606;1.472;2023-04-07T03:12:31;99473.25;;;17.66;50.32
54236;BME280;40151;43.606;1.472;2023-04-07T03:14:56;99470.72;;;17.64;50.25
54236;BME280;40151;43.606;1.472;2023-04-07T03:17:22;99474.25;;;17.63;50.26
54236;BME280;40151;43.606;1.472;2023-04-07T03:19:47;99465.44;;;17.64;50.32
54236;BME280;40151;43.606;1.472;2023-04-07T03:22:13;99465.44;;;17.64;50.65
54236;BME280;40151;43.606;1.472;2023-04-07T03:24:38;99460.16;;;17.64;50.48
54236;BME280;40151;43.606;1.472;2023-04-07T03:27:05;99459.28;;;17.64;50.46
54236;BME280;40151;43.606;1.472;2023-04-07T03:29:30;99459.28;;;17.64;50.31
54236;BME280;40151;43.606;1.472;2023-04-07T03:31:56;99453.16;;;17.63;50.22
54236;BME280;40151;43.606;1.472;2023-04-07T03:34:21;99453.16;;;17.63;50.24
54236;BME280;40151;43.606;1.472;2023-04-07T03:36:46;99457.59;;;17.63;50.65
54236;BME280;40151;43.606;1.472;2023-04-07T03:39:12;99448.81;;;17.62;50.40
54236;BME280;40151;43.606;1.472;2023-04-07T03:41:37;99448.88;;;17.61;50.45
54236;BME280;40151;43.606;1.472;2023-04-07T03:44:03;99451.59;;;17.59;50.66
54236;BME280;40151;43.606;1.472;2023-04-07T03:46:28;99449.91;;;17.58;50.46
54236;BME280;40151;43.606;1.472;2023-04-07T03:48:53;99445.53;;;17.57;50.71
54236;BME280;40151;43.606;1.472;2023-04-07T03:51:19;99442.88;;;17.57;50.43
54236;BME280;40151;43.606;1.472;2023-04-07T03:53:44;99435.91;;;17.56;50.40
54236;BME280;40151;43.606;1.472;2023-04-07T03:56:10;99441.19;;;17.56;50.55
54236;BME280;40151;43.606;1.472;2023-04-07T03:58:36;99440.34;;;17.55;50.51
54236;BME280;40151;43.606;1.472;2023-04-07T04:01:02;99442.19;;;17.53;50.62
54236;BME280;40151;43.606;1.472;2023-04-07T04:03:27;99439.47;;;17.55;50.45
54236;BME280;40151;43.606;1.472;2023-04-07T04:05:53;99436.06;;;17.53;50.56
54236;BME280;40151;43.606;1.472;2023-04-07T04:08:19;99431.63;;;17.53;50.41
54236;BME280;40151;43.606;1.472;2023-04-07T04:10:44;99429.97;;;17.51;50.21
54236;BME280;40151;43.606;1.472;2023-04-07T04:13:10;99433.56;;;17.50;50.38
54236;BME280;40151;43.606;1.472;2023-04-07T04:15:35;99427.34;;;17.51;50.40
54236;BME280;40151;43.606;1.472;2023-04-07T04:18:01;99434.41;;;17.50;50.16
54236;BME280;40151;43.606;1.472;2023-04-07T04:20:26;99436.34;;;17.47;50.37
54236;BME280;40151;43.606;1.472;2023-04-07T04:22:52;99428.34;;;17.48;50.37
54236;BME280;40151;43.606;1.472;2023-04-07T04:25:17;99416.94;;;17.48;50.35
54236;BME280;40151;43.606;1.472;2023-04-07T04:27:42;99424.94;;;17.46;50.54
54236;BME280;40151;43.606;1.472;2023-04-07T04:30:08;99426.69;;;17.45;50.47
54236;BME280;40151;43.606;1.472;2023-04-07T04:32:33;99418.00;;;17.43;50.39
54236;BME280;40151;43.606;1.472;2023-04-07T04:34:59;99424.22;;;17.42;50.35
54236;BME280;40151;43.606;1.472;2023-04-07T04:37:24;99415.44;;;17.42;50.12
54236;BME280;40151;43.606;1.472;2023-04-07T04:39:50;99413.81;;;17.39;50.65
54236;BME280;40151;43.606;1.472;2023-04-07T04:42:15;99415.53;;;17.40;50.37
54236;BME280;40151;43.606;1.472;2023-04-07T04:44:41;99420.00;;;17.38;50.25
54236;BME280;40151;43.606;1.472;2023-04-07T04:47:06;99420.94;;;17.37;50.56
54236;BME280;40151;43.606;1.472;2023-04-07T04:49:32;99420.06;;;17.37;50.57
54236;BME280;40151;43.606;1.472;2023-04-07T04:51:58;99423.69;;;17.34;50.26
54236;BME280;40151;43.606;1.472;2023-04-07T04:54:23;99421.00;;;17.36;50.45
54236;BME280;40151;43.606;1.472;2023-04-07T04:56:48;99422.00;;;17.33;50.53
54236;BME280;40151;43.606;1.472;2023-04-07T04:59:14;99421.16;;;17.33;50.42
54236;BME280;40151;43.606;1.472;2023-04-07T05:01:40;99420.34;;;17.30;50.35
54236;BME280;40151;43.606;1.472;2023-04-07T05:04:05;99418.59;;;17.31;50.44
54236;BME280;40151;43.606;1.472;2023-04-07T05:06:30;99426.63;;;17.28;50.18
54236;BME280;40151;43.606;1.472;2023-04-07T05:08:56;99431.78;;;17.31;50.08
54236;BME280;40151;43.606;1.472;2023-04-07T05:11:22;99431.00;;;17.29;50.08
54236;BME280;40151;43.606;1.472;2023-04-07T05:13:47;99430.19;;;17.27;50.17
54236;BME280;40151;43.606;1.472;2023-04-07T05:16:13;99439.03;;;17.26;50.03
54236;BME280;40151;43.606;1.472;2023-04-07T05:18:38;99448.66;;;17.27;50.21
54236;BME280;40151;43.606;1.472;2023-04-07T05:21:03;99448.66;;;17.27;50.43
54236;BME280;40151;43.606;1.472;2023-04-07T05:23:29;99442.59;;;17.25;50.01
54236;BME280;40151;43.606;1.472;2023-04-07T05:25:54;99445.38;;;17.22;50.07
54236;BME280;40151;43.606;1.472;2023-04-07T05:28:20;99453.16;;;17.25;50.10
54236;BME280;40151;43.606;1.472;2023-04-07T05:30:46;99456.72;;;17.24;50.25
54236;BME280;40151;43.606;1.472;2023-04-07T05:33:12;99459.47;;;17.21;50.11
54236;BME280;40151;43.606;1.472;2023-04-07T05:35:37;99459.63;;;17.17;50.16
54236;BME280;40151;43.606;1.472;2023-04-07T05:38:03;99458.72;;;17.18;50.06
54236;BME280;40151;43.606;1.472;2023-04-07T05:40:28;99464.81;;;17.19;50.02
54236;BME280;40151;43.606;1.472;2023-04-07T05:42:57;99467.63;;;17.16;49.96
54236;BME280;40151;43.606;1.472;2023-04-07T05:45:22;99465.81;;;17.16;49.94
54236;BME280;40151;43.606;1.472;2023-04-07T05:47:47;99471.09;;;17.16;50.33
54236;BME280;40151;43.606;1.472;2023-04-07T05:50:15;99464.97;;;17.16;49.94
54236;BME280;40151;43.606;1.472;2023-04-07T05:52:41;99467.66;;;17.14;50.00
54236;BME280;40151;43.606;1.472;2023-04-07T05:55:06;99474.75;;;17.14;50.12
54236;BME280;40151;43.606;1.472;2023-04-07T05:57:32;99479.22;;;17.12;50.22
54236;BME280;40151;43.606;1.472;2023-04-07T05:59:58;99478.38;;;17.11;50.25
54236;BME280;40151;43.606;1.472;2023-04-07T06:02:24;99480.09;;;17.12;50.04
54236;BME280;40151;43.606;1.472;2023-04-07T06:04:49;99478.38;;;17.11;50.21
54236;BME280;40151;43.606;1.472;2023-04-07T06:07:14;99481.84;;;17.12;50.39
54236;BME280;40151;43.606;1.472;2023-04-07T06:09:40;99473.16;;;17.10;50.35
54236;BME280;40151;43.606;1.472;2023-04-07T06:12:07;99479.28;;;17.10;50.34
54236;BME280;40151;43.606;1.472;2023-04-07T06:14:33;99480.13;;;17.11;50.29
54236;BME280;40151;43.606;1.472;2023-04-07T06:16:58;99483.66;;;17.11;49.99
54236;BME280;40151;43.606;1.472;2023-04-07T06:19:24;99487.19;;;17.10;50.29
54236;BME280;40151;43.606;1.472;2023-04-07T06:21:51;99488.13;;;17.09;50.02
54236;BME280;40151;43.606;1.472;2023-04-07T06:24:17;99482.78;;;17.11;50.15
54236;BME280;40151;43.606;1.472;2023-04-07T06:26:43;99494.19;;;17.11;50.08
54236;BME280;40151;43.606;1.472;2023-04-07T06:29:09;99487.19;;;17.10;50.11
54236;BME280;40151;43.606;1.472;2023-04-07T06:31:34;99491.56;;;17.11;50.15
54236;BME280;40151;43.606;1.472;2023-04-07T06:34:00;99492.44;;;17.10;50.00
54236;BME280;40151;43.606;1.472;2023-04-07T06:36:26;99489.81;;;17.10;50.02
54236;BME280;40151;43.606;1.472;2023-04-07T06:38:51;99503.00;;;17.10;50.32
54236;BME280;40151;43.606;1.472;2023-04-07T06:41:17;99505.56;;;17.12;49.85
54236;BME280;40151;43.606;1.472;2023-04-07T06:43:46;99495.97;;;17.11;50.19
54236;BME280;40151;43.606;1.472;2023-04-07T06:46:12;99499.47;;;17.11;50.34
54236;BME280;40151;43.606;1.472;2023-04-07T06:48:37;99501.22;;;17.11;50.08
54236;BME280;40151;43.606;1.472;2023-04-07T06:51:03;99505.56;;;17.12;50.06
54236;BME280;40151;43.606;1.472;2023-04-07T06:53:28;99506.44;;;17.12;50.07
54236;BME280;40151;43.606;1.472;2023-04-07T06:56:08;99522.28;;;17.12;50.07
54236;BME280;40151;43.606;1.472;2023-04-07T06:58:34;99517.84;;;17.13;49.83
54236;BME280;40151;43.606;1.472;2023-04-07T07:01:00;99527.53;;;17.12;50.07
54236;BME280;40151;43.606;1.472;2023-04-07T07:03:26;99527.53;;;17.12;50.14
54236;BME280;40151;43.606;1.472;2023-04-07T07:05:55;99506.44;;;17.12;49.96
54236;BME280;40151;43.606;1.472;2023-04-07T07:08:24;99515.91;;;17.16;49.79
54236;BME280;40151;43.606;1.472;2023-04-07T07:10:50;99516.72;;;17.18;50.12
54236;BME280;40151;43.606;1.472;2023-04-07T07:13:17;99522.94;;;17.17;50.15
54236;BME280;40151;43.606;1.472;2023-04-07T07:15:43;99516.72;;;17.18;49.82
54236;BME280;40151;43.606;1.472;2023-04-07T07:18:08;99522.00;;;17.18;49.80
54236;BME280;40151;43.606;1.472;2023-04-07T07:20:34;99526.56;;;17.15;50.01
54236;BME280;40151;43.606;1.472;2023-04-07T07:22:59;99513.28;;;17.16;49.87
54236;BME280;40151;43.606;1.472;2023-04-07T07:25:24;99527.28;;;17.18;49.95
54236;BME280;40151;43.606;1.472;2023-04-07T07:27:53;99523.69;;;17.20;49.77
54236;BME280;40151;43.606;1.472;2023-04-07T07:30:22;99520.13;;;17.21;49.93
54236;BME280;40151;43.606;1.472;2023-04-07T07:32:48;99521.06;;;17.20;49.84
54236;BME280;40151;43.606;1.472;2023-04-07T07:35:14;99517.50;;;17.21;49.81
54236;BME280;40151;43.606;1.472;2023-04-07T07:37:40;99521.00;;;17.21;50.09
54236;BME280;40151;43.606;1.472;2023-04-07T07:40:05;99516.56;;;17.22;49.96
54236;BME280;40151;43.606;1.472;2023-04-07T07:42:31;99514.75;;;17.24;49.70
54236;BME280;40151;43.606;1.472;2023-04-07T07:44:57;99514.75;;;17.24;49.67
54236;BME280;40151;43.606;1.472;2023-04-07T07:47:22;99521.72;;;17.25;49.71
54236;BME280;40151;43.606;1.472;2023-04-07T07:49:48;99529.63;;;17.25;49.75
54236;BME280;40151;43.606;1.472;2023-04-07T07:52:14;99524.31;;;17.26;49.73
54236;BME280;40151;43.606;1.472;2023-04-07T07:54:40;99522.50;;;17.27;49.58
54236;BME280;40151;43.606;1.472;2023-04-07T07:57:05;99521.56;;;17.28;49.65
54236;BME280;40151;43.606;1.472;2023-04-07T07:59:31;99522.56;;;17.25;49.70
54236;BME280;40151;43.606;1.472;2023-04-07T08:01:56;99525.13;;;17.27;49.63
54236;BME280;40151;43.606;1.472;2023-04-07T08:04:22;99525.94;;;17.29;49.86
54236;BME280;40151;43.606;1.472;2023-04-07T08:06:48;99526.00;;;17.27;49.80
54236;BME280;40151;43.606;1.472;2023-04-07T08:09:15;99532.94;;;17.30;49.79
54236;BME280;40151;43.606;1.472;2023-04-07T08:11:40;99530.28;;;17.30;49.57
54236;BME280;40151;43.606;1.472;2023-04-07T08:14:06;99533.72;;;17.32;49.86
54236;BME280;40151;43.606;1.472;2023-04-07T08:16:31;99538.00;;;17.35;49.85
54236;BME280;40151;43.606;1.472;2023-04-07T08:18:57;99541.56;;;17.34;49.63
54236;BME280;40151;43.606;1.472;2023-04-07T08:21:22;99528.31;;;17.35;49.65
54236;BME280;40151;43.606;1.472;2023-04-07T08:23:48;99537.13;;;17.34;49.69
54236;BME280;40151;43.606;1.472;2023-04-07T08:26:13;99540.56;;;17.36;49.90
54236;BME280;40151;43.606;1.472;2023-04-07T08:28:38;99547.56;;;17.37;49.56
54236;BME280;40151;43.606;1.472;2023-04-07T08:31:04;99539.50;;;17.40;49.70
54236;BME280;40151;43.606;1.472;2023-04-07T08:33:29;99542.16;;;17.40;49.63
54236;BME280;40151;43.606;1.472;2023-04-07T08:35:55;99546.50;;;17.41;49.66
54236;BME280;40151;43.606;1.472;2023-04-07T08:38:21;99543.84;;;17.41;49.87
54236;BME280;40151;43.606;1.472;2023-04-07T08:40:49;99536.72;;;17.43;49.57
54236;BME280;40151;43.606;1.472;2023-04-07T08:43:19;99543.78;;;17.43;49.75
54236;BME280;40151;43.606;1.472;2023-04-07T08:45:46;99533.97;;;17.47;49.66
54236;BME280;40151;43.606;1.472;2023-04-07T08:48:19;99538.31;;;17.48;49.88
54236;BME280;40151;43.606;1.472;2023-04-07T08:50:48;99543.44;;;17.51;49.43
54236;BME280;40151;43.606;1.472;2023-04-07T08:53:18;99539.84;;;17.52;49.64
54236;BME280;40151;43.606;1.472;2023-04-07T08:55:47;99543.31;;;17.54;49.65
54236;BME280;40151;43.606;1.472;2023-04-07T08:58:13;99544.09;;;17.56;49.44
54236;BME280;40151;43.606;1.472;2023-04-07T09:00:40;99542.31;;;17.56;49.43
54236;BME280;40151;43.606;1.472;2023-04-07T09:03:07;99537.88;;;17.57;49.47
54236;BME280;40151;43.606;1.472;2023-04-07T09:05:34;99537.75;;;17.60;49.53
54236;BME280;40151;43.606;1.472;2023-04-07T09:08:01;99537.75;;;17.60;49.37
54236;BME280;40151;43.606;1.472;2023-04-07T09:10:27;99542.03;;;17.63;49.60
54236;BME280;40151;43.606;1.472;2023-04-07T09:12:53;99534.94;;;17.63;49.52
54236;BME280;40151;43.606;1.472;2023-04-07T09:15:19;99534.06;;;17.64;49.30
54236;BME280;40151;43.606;1.472;2023-04-07T09:17:44;99530.47;;;17.65;49.47
54236;BME280;40151;43.606;1.472;2023-04-07T09:20:10;99533.91;;;17.67;49.63
54236;BME280;40151;43.606;1.472;2023-04-07T09:22:41;99528.63;;;17.67;49.38
54236;BME280;40151;43.606;1.472;2023-04-07T09:27:39;99531.13;;;17.70;49.52
54236;BME280;40151;43.606;1.472;2023-04-07T09:30:12;99523.06;;;17.74;49.38
54236;BME280;40151;43.606;1.472;2023-04-07T09:32:39;99518.66;;;17.74;49.44
54236;BME280;40151;43.606;1.472;2023-04-07T09:35:05;99510.78;;;17.73;49.45
54236;BME280;40151;43.606;1.472;2023-04-07T09:37:31;99514.28;;;17.73;49.37
54236;BME280;40151;43.606;1.472;2023-04-07T09:39:56;99501.94;;;17.74;49.62
54236;BME280;40151;43.606;1.472;2023-04-07T09:42:22;99502.72;;;17.76;49.53
54236;BME280;40151;43.606;1.472;2023-04-07T09:44:47;99509.63;;;17.78;49.28
54236;BME280;40151;43.606;1.472;2023-04-07T09:47:13;99507.88;;;17.79;49.32
54236;BME280;40151;43.606;1.472;2023-04-07T09:49:49;99508.63;;;17.81;49.45
54236;BME280;40151;43.606;1.472;2023-04-07T09:52:16;99504.22;;;17.81;49.38
54236;BME280;40151;43.606;1.472;2023-04-07T09:54:45;99504.94;;;17.85;49.52
54236;BME280;40151;43.606;1.472;2023-04-07T09:57:11;99501.53;;;17.83;49.43
54236;BME280;40151;43.606;1.472;2023-04-07T09:59:39;99496.09;;;17.86;49.29
54236;BME280;40151;43.606;1.472;2023-04-07T10:02:07;99509.16;;;17.89;49.40
54236;BME280;40151;43.606;1.472;2023-04-07T10:04:33;99501.16;;;17.91;49.36
54236;BME280;40151;43.606;1.472;2023-04-07T10:06:59;99497.59;;;17.92;49.59
54236;BME280;40151;43.606;1.472;2023-04-07T10:09:28;99498.44;;;17.92;49.09
54236;BME280;40151;43.606;1.472;2023-04-07T10:11:56;99496.59;;;17.94;49.41
54236;BME280;40151;43.606;1.472;2023-04-07T10:14:26;99492.09;;;17.96;49.63
54236;BME280;40151;43.606;1.472;2023-04-07T10:16:51;99491.16;;;17.97;49.30
54236;BME280;40151;43.606;1.472;2023-04-07T10:19:18;99484.03;;;18.00;49.63
54236;BME280;40151;43.606;1.472;2023-04-07T10:21:43;99486.66;;;18.00;49.44
54236;BME280;40151;43.606;1.472;2023-04-07T10:27:05;99482.09;;;18.03;49.44
54236;BME280;40151;43.606;1.472;2023-04-07T10:29:40;99477.66;;;18.04;49.60
54236;BME280;40151;43.606;1.472;2023-04-07T10:32:06;99471.44;;;18.05;49.24
54236;BME280;40151;43.606;1.472;2023-04-07T10:37:16;99472.28;;;18.07;49.35
54236;BME280;40151;43.606;1.472;2023-04-07T10:39:45;99461.53;;;18.10;49.61
54236;BME280;40151;43.606;1.472;2023-04-07T10:45:05;99457.97;;;18.11;49.48
54236;BME280;40151;43.606;1.472;2023-04-07T10:47:31;99458.75;;;18.13;49.53
54236;BME280;40151;43.606;1.472;2023-04-07T10:50:20;99461.41;;;18.13;49.47
54236;BME280;40151;43.606;1.472;2023-04-07T10:52:47;99449.91;;;18.14;49.39
54236;BME280;40151;43.606;1.472;2023-04-07T10:55:32;99455.88;;;18.18;49.44
54236;BME280;40151;43.606;1.472;2023-04-07T11:03:40;99438.97;;;18.22;49.62
54236;BME280;40151;43.606;1.472;2023-04-07T11:06:08;99439.81;;;18.22;49.78
54236;BME280;40151;43.606;1.472;2023-04-07T11:08:35;99443.25;;;18.24;49.83
54236;BME280;40151;43.606;1.472;2023-04-07T11:11:02;99439.66;;;18.25;49.56
54236;BME280;40151;43.606;1.472;2023-04-07T11:13:27;99440.44;;;18.28;49.83
54236;BME280;40151;43.606;1.472;2023-04-07T11:15:53;99444.78;;;18.29;49.49
54236;BME280;40151;43.606;1.472;2023-04-07T11:18:20;99431.50;;;18.30;49.53
54236;BME280;40151;43.606;1.472;2023-04-07T11:20:54;99434.06;;;18.32;49.83
54236;BME280;40151;43.606;1.472;2023-04-07T11:23:21;99423.44;;;18.33;49.78
54236;BME280;40151;43.606;1.472;2023-04-07T11:25:50;99422.50;;;18.34;49.81
54236;BME280;40151;43.606;1.472;2023-04-07T11:28:16;99425.91;;;18.36;49.80
54236;BME280;40151;43.606;1.472;2023-04-07T11:30:48;99421.50;;;18.37;49.59
54236;BME280;40151;43.606;1.472;2023-04-07T11:33:19;99417.91;;;18.38;49.63
54236;BME280;40151;43.606;1.472;2023-04-07T11:35:49;99416.03;;;18.40;49.90
54236;BME280;40151;43.606;1.472;2023-04-07T11:38:15;99408.91;;;18.42;50.01
54236;BME280;40151;43.606;1.472;2023-04-07T11:40:40;99409.66;;;18.44;49.91
54236;BME280;40151;43.606;1.472;2023-04-07T11:43:16;99403.44;;;18.45;49.98
54236;BME280;40151;43.606;1.472;2023-04-07T11:45:42;99401.59;;;18.47;49.77
54236;BME280;40151;43.606;1.472;2023-04-07T11:48:27;99398.03;;;18.48;49.72
54236;BME280;40151;43.606;1.472;2023-04-07T11:50:53;99396.16;;;18.50;49.83
54236;BME280;40151;43.606;1.472;2023-04-07T11:53:29;99394.38;;;18.51;50.03
54236;BME280;40151;43.606;1.472;2023-04-07T11:56:08;99396.94;;;18.52;49.92
54236;BME280;40151;43.606;1.472;2023-04-07T11:58:35;99386.38;;;18.52;49.99
54236;BME280;40151;43.606;1.472;2023-04-07T12:01:05;99392.41;;;18.55;49.85
54236;BME280;40151;43.606;1.472;2023-04-07T12:03:34;99391.47;;;18.56;50.08
54236;BME280;40151;43.606;1.472;2023-04-07T12:06:01;99393.09;;;18.58;49.83
54236;BME280;40151;43.606;1.472;2023-04-07T12:08:56;99385.09;;;18.60;50.23
54236;BME280;40151;43.606;1.472;2023-04-07T12:11:22;99374.47;;;18.61;49.98
54236;BME280;40151;43.606;1.472;2023-04-07T12:13:47;99377.09;;;18.61;50.16
54236;BME280;40151;43.606;1.472;2023-04-07T12:16:13;99374.38;;;18.63;49.83
54236;BME280;40151;43.606;1.472;2023-04-07T12:18:38;99372.50;;;18.65;50.00
54236;BME280;40151;43.606;1.472;2023-04-07T12:21:04;99374.22;;;18.66;50.14
54236;BME280;40151;43.606;1.472;2023-04-07T12:23:29;99368.94;;;18.66;50.06
54236;BME280;40151;43.606;1.472;2023-04-07T12:25:55;99368.75;;;18.69;50.14
54236;BME280;40151;43.606;1.472;2023-04-07T12:28:20;99366.03;;;18.71;50.33
54236;BME280;40151;43.606;1.472;2023-04-07T12:30:46;99351.94;;;18.70;50.16
54236;BME280;40151;43.606;1.472;2023-04-07T12:33:11;99354.44;;;18.73;50.04
54236;BME280;40151;43.606;1.472;2023-04-07T12:35:36;99359.72;;;18.73;50.04
54236;BME280;40151;43.606;1.472;2023-04-07T12:38:03;99351.66;;;18.76;49.95
54236;BME280;40151;43.606;1.472;2023-04-07T12:40:29;99352.50;;;18.77;49.88
54236;BME280;40151;43.606;1.472;2023-04-07T12:42:55;99346.25;;;18.78;50.14
54236;BME280;40151;43.606;1.472;2023-04-07T12:45:23;99340.91;;;18.79;50.04
54236;BME280;40151;43.606;1.472;2023-04-07T12:47:48;99331.09;;;18.82;50.15
54236;BME280;40151;43.606;1.472;2023-04-07T12:50:14;99342.53;;;18.82;50.29
54236;BME280;40151;43.606;1.472;2023-04-07T12:52:40;99329.22;;;18.84;50.16
54236;BME280;40151;43.606;1.472;2023-04-07T12:55:06;99326.50;;;18.85;50.17
54236;BME280;40151;43.606;1.472;2023-04-07T12:57:31;99322.06;;;18.86;50.25
54236;BME280;40151;43.606;1.472;2023-04-07T12:59:57;99323.69;;;18.88;50.12
54236;BME280;40151;43.606;1.472;2023-04-07T13:02:23;99317.47;;;18.89;50.24
54236;BME280;40151;43.606;1.472;2023-04-07T13:04:48;99313.03;;;18.90;50.31
54236;BME280;40151;43.606;1.472;2023-04-07T13:07:14;99317.31;;;18.92;50.33
54236;BME280;40151;43.606;1.472;2023-04-07T13:09:40;99319.88;;;18.94;50.31
54236;BME280;40151;43.606;1.472;2023-04-07T13:12:09;99316.28;;;18.95;50.60
54236;BME280;40151;43.606;1.472;2023-04-07T13:14:36;99307.41;;;18.96;50.64
54236;BME280;40151;43.606;1.472;2023-04-07T13:17:01;99306.47;;;18.97;50.50